createdAt,value
2018-11-14T00:00:04.485Z,0
2018-11-14T00:00:45.048Z,0
2018-11-14T00:01:25.732Z,0
2018-11-14T00:02:06.301Z,0
2018-11-14T00:02:46.882Z,0
2018-11-14T00:03:27.436Z,0
2018-11-14T00:04:07.987Z,0
2018-11-14T00:04:48.569Z,0
2018-11-14T00:05:29.168Z,0
2018-11-14T00:06:09.734Z,0
2018-11-14T00:06:50.295Z,0
2018-11-14T00:07:30.868Z,0
2018-11-14T00:08:11.426Z,0
2018-11-14T00:08:52.062Z,0
2018-11-14T00:09:32.630Z,0
2018-11-14T00:10:13.161Z,0
2018-11-14T00:10:53.696Z,0
2018-11-14T00:11:34.253Z,0
2018-11-14T00:12:14.824Z,0
2018-11-14T00:12:55.382Z,0
2018-11-14T00:13:35.930Z,0
2018-11-14T00:14:16.508Z,0
2018-11-14T00:14:57.083Z,0
2018-11-14T00:15:37.639Z,0
2018-11-14T00:16:18.194Z,0
2018-11-14T00:16:58.749Z,0
2018-11-14T00:17:39.296Z,0
2018-11-14T00:18:19.854Z,0
2018-11-14T00:19:00.426Z,0
2018-11-14T00:19:40.985Z,0
2018-11-14T00:20:21.535Z,0
2018-11-14T00:21:02.106Z,0
2018-11-14T00:21:42.674Z,0
2018-11-14T00:22:23.239Z,0
2018-11-14T00:23:03.773Z,0
2018-11-14T00:23:44.353Z,0
2018-11-14T00:24:24.989Z,0
2018-11-14T00:25:05.493Z,0
2018-11-14T00:25:46.048Z,0
2018-11-14T00:26:26.629Z,0
2018-11-14T00:27:07.527Z,0
2018-11-14T00:27:48.128Z,0
2018-11-14T00:28:28.658Z,0
2018-11-14T00:29:09.264Z,0
2018-11-14T00:29:49.831Z,0
2018-11-14T00:30:30.383Z,0
2018-11-14T00:31:10.961Z,0
2018-11-14T00:31:51.520Z,0
2018-11-14T00:32:32.075Z,0
2018-11-14T00:33:12.684Z,0
2018-11-14T00:33:53.204Z,0
2018-11-14T00:34:33.750Z,0
2018-11-14T00:35:14.312Z,0
2018-11-14T00:35:54.856Z,0
2018-11-14T00:36:35.418Z,0
2018-11-14T00:37:15.963Z,0
2018-11-14T00:37:56.528Z,0
2018-11-14T00:38:37.069Z,0
2018-11-14T00:39:17.632Z,0
2018-11-14T00:39:58.186Z,0
2018-11-14T00:40:38.764Z,0
2018-11-14T00:41:19.326Z,0
2018-11-14T00:41:59.869Z,0
2018-11-14T00:42:40.429Z,0
2018-11-14T00:43:20.975Z,0
2018-11-14T00:44:01.523Z,0
2018-11-14T00:44:42.077Z,0
2018-11-14T00:45:22.650Z,0
2018-11-14T00:46:03.211Z,0
2018-11-14T00:46:43.769Z,0
2018-11-14T00:47:24.337Z,0
2018-11-14T00:48:04.876Z,0
2018-11-14T00:48:45.431Z,0
2018-11-14T00:49:26.003Z,0
2018-11-14T00:50:06.560Z,0
2018-11-14T00:50:47.128Z,0
2018-11-14T00:51:27.689Z,0
2018-11-14T00:52:08.259Z,0
2018-11-14T00:52:48.813Z,0
2018-11-14T00:53:29.395Z,0
2018-11-14T00:54:09.952Z,0
2018-11-14T00:54:50.539Z,0
2018-11-14T00:55:31.085Z,0
2018-11-14T00:56:11.658Z,0
2018-11-14T00:56:52.207Z,0
2018-11-14T00:57:32.777Z,0
2018-11-14T00:58:13.334Z,0
2018-11-14T00:58:53.938Z,0
2018-11-14T00:59:34.490Z,0
2018-11-14T01:00:15.052Z,0
2018-11-14T01:00:55.609Z,0
2018-11-14T01:01:36.188Z,0
2018-11-14T01:02:17.127Z,0
2018-11-14T01:02:57.806Z,0
2018-11-14T01:03:38.399Z,0
2018-11-14T01:04:18.988Z,0
2018-11-14T01:04:59.530Z,0
2018-11-14T01:05:40.107Z,0
2018-11-14T01:06:20.683Z,0
2018-11-14T01:07:01.243Z,0
2018-11-14T01:07:41.861Z,0
2018-11-14T01:08:22.379Z,0
2018-11-14T01:09:03.002Z,0
2018-11-14T01:09:43.491Z,0
2018-11-14T01:10:24.062Z,0
2018-11-14T01:11:04.625Z,0
2018-11-14T01:11:45.173Z,0
2018-11-14T01:12:25.715Z,0
2018-11-14T01:13:06.374Z,0
2018-11-14T01:13:46.923Z,0
2018-11-14T01:14:27.469Z,0
2018-11-14T01:15:08.075Z,0
2018-11-14T01:15:48.641Z,0
2018-11-14T01:16:29.194Z,0
2018-11-14T01:17:09.773Z,0
2018-11-14T01:17:50.309Z,0
2018-11-14T01:18:30.876Z,0
2018-11-14T01:19:11.443Z,0
2018-11-14T01:19:52.017Z,0
2018-11-14T01:20:32.575Z,0
2018-11-14T01:21:13.130Z,0
2018-11-14T01:21:53.681Z,0
2018-11-14T01:22:34.243Z,0
2018-11-14T01:23:14.793Z,0
2018-11-14T01:23:55.359Z,0
2018-11-14T01:24:35.930Z,0
2018-11-14T01:25:16.496Z,0
2018-11-14T01:25:57.049Z,0
2018-11-14T01:26:37.609Z,0
2018-11-14T01:27:18.173Z,0
2018-11-14T01:27:58.727Z,0
2018-11-14T01:28:39.286Z,0
2018-11-14T01:29:19.922Z,0
2018-11-14T01:30:00.474Z,0
2018-11-14T01:30:41.040Z,0
2018-11-14T01:31:21.605Z,0
2018-11-14T01:32:02.185Z,0
2018-11-14T01:32:42.737Z,0
2018-11-14T01:33:23.288Z,0
2018-11-14T01:34:03.864Z,0
2018-11-14T01:34:44.409Z,0
2018-11-14T01:35:25.052Z,0
2018-11-14T01:36:05.616Z,0
2018-11-14T01:36:46.183Z,0
2018-11-14T01:37:26.758Z,0
2018-11-14T01:38:07.336Z,0
2018-11-14T01:38:47.900Z,0
2018-11-14T01:39:28.447Z,0
2018-11-14T01:40:09.005Z,0
2018-11-14T01:40:49.560Z,0
2018-11-14T01:41:30.106Z,0
2018-11-14T01:42:10.686Z,0
2018-11-14T01:42:51.223Z,0
2018-11-14T01:43:31.791Z,0
2018-11-14T01:44:12.346Z,0
2018-11-14T01:44:52.904Z,0
2018-11-14T01:45:33.445Z,0
2018-11-14T01:46:14.014Z,0
2018-11-14T01:46:54.580Z,0
2018-11-14T01:47:35.182Z,0
2018-11-14T01:48:15.742Z,0
2018-11-14T01:48:56.300Z,0
2018-11-14T01:49:36.859Z,0
2018-11-14T01:50:17.419Z,0
2018-11-14T01:50:57.988Z,0
2018-11-14T01:51:38.540Z,0
2018-11-14T01:52:19.108Z,0
2018-11-14T01:52:59.680Z,0
2018-11-14T01:53:40.256Z,0
2018-11-14T01:54:20.800Z,0
2018-11-14T01:55:01.340Z,0
2018-11-14T01:55:41.897Z,0
2018-11-14T01:56:22.441Z,0
2018-11-14T01:57:02.995Z,0
2018-11-14T01:57:43.550Z,0
2018-11-14T01:58:24.148Z,0
2018-11-14T01:59:04.747Z,0
2018-11-14T01:59:45.315Z,0
2018-11-14T02:00:25.858Z,0
2018-11-14T02:01:06.406Z,0
2018-11-14T02:01:46.959Z,0
2018-11-14T02:02:27.540Z,0
2018-11-14T02:03:08.072Z,0
2018-11-14T02:03:48.644Z,0
2018-11-14T02:04:29.225Z,0
2018-11-14T02:05:09.794Z,0
2018-11-14T02:05:50.346Z,0
2018-11-14T02:06:30.899Z,0
2018-11-14T02:07:11.457Z,0
2018-11-14T02:07:52.025Z,0
2018-11-14T02:08:32.603Z,0
2018-11-14T02:09:13.146Z,0
2018-11-14T02:09:53.709Z,0
2018-11-14T02:10:34.272Z,0
2018-11-14T02:11:14.846Z,0
2018-11-14T02:11:55.405Z,0
2018-11-14T02:12:35.956Z,0
2018-11-14T02:13:16.507Z,0
2018-11-14T02:13:57.081Z,0
2018-11-14T02:14:37.666Z,0
2018-11-14T02:15:18.220Z,0
2018-11-14T02:15:58.774Z,0
2018-11-14T02:16:39.318Z,0
2018-11-14T02:17:19.895Z,0
2018-11-14T02:18:00.462Z,0
2018-11-14T02:18:41.008Z,0
2018-11-14T02:19:21.553Z,0
2018-11-14T02:20:02.102Z,0
2018-11-14T02:20:42.668Z,0
2018-11-14T02:21:23.224Z,0
2018-11-14T02:22:03.782Z,0
2018-11-14T02:22:44.337Z,0
2018-11-14T02:23:24.886Z,0
2018-11-14T02:24:05.447Z,0
2018-11-14T02:24:45.985Z,0
2018-11-14T02:25:26.547Z,0
2018-11-14T02:26:07.107Z,0
2018-11-14T02:26:47.659Z,0
2018-11-14T02:27:28.213Z,0
2018-11-14T02:28:08.776Z,0
2018-11-14T02:28:49.335Z,0
2018-11-14T02:29:29.903Z,0
2018-11-14T02:30:10.476Z,0
2018-11-14T02:30:51.021Z,0
2018-11-14T02:31:31.567Z,0
2018-11-14T02:32:12.118Z,0
2018-11-14T02:32:52.688Z,0
2018-11-14T02:33:33.249Z,0
2018-11-14T02:34:13.808Z,0
2018-11-14T02:34:54.411Z,0
2018-11-14T02:35:34.967Z,0
2018-11-14T02:36:15.558Z,0
2018-11-14T02:36:56.122Z,0
2018-11-14T02:37:36.686Z,0
2018-11-14T02:38:17.256Z,0
2018-11-14T02:38:57.827Z,0
2018-11-14T02:39:38.391Z,0
2018-11-14T02:40:18.976Z,0
2018-11-14T02:40:59.515Z,0
2018-11-14T02:41:40.202Z,0
2018-11-14T02:42:20.765Z,0
2018-11-14T02:43:01.359Z,0
2018-11-14T02:43:41.913Z,0
2018-11-14T02:44:22.470Z,0
2018-11-14T02:45:03.024Z,0
2018-11-14T02:45:43.594Z,0
2018-11-14T02:46:24.189Z,0
2018-11-14T02:47:04.752Z,0
2018-11-14T02:47:45.301Z,0
2018-11-14T02:48:25.855Z,0
2018-11-14T02:49:06.412Z,0
2018-11-14T02:49:46.967Z,0
2018-11-14T02:50:27.526Z,0
2018-11-14T02:51:08.084Z,0
2018-11-14T02:51:48.643Z,0
2018-11-14T02:52:29.189Z,0
2018-11-14T02:53:09.775Z,0
2018-11-14T02:53:50.327Z,0
2018-11-14T02:54:30.918Z,0
2018-11-14T02:55:11.530Z,0
2018-11-14T02:55:52.099Z,0
2018-11-14T02:56:32.658Z,0
2018-11-14T02:57:13.233Z,0
2018-11-14T02:57:53.788Z,0
2018-11-14T02:58:34.385Z,0
2018-11-14T02:59:14.968Z,0
2018-11-14T02:59:55.544Z,0
2018-11-14T03:00:36.094Z,0
2018-11-14T03:01:16.642Z,0
2018-11-14T03:01:57.196Z,0
2018-11-14T03:02:37.769Z,0
2018-11-14T03:03:18.320Z,0
2018-11-14T03:03:58.890Z,0
2018-11-14T03:04:39.462Z,0
2018-11-14T03:05:20.019Z,0
2018-11-14T03:06:00.606Z,0
2018-11-14T03:06:41.169Z,0
2018-11-14T03:07:21.757Z,0
2018-11-14T03:08:02.312Z,0
2018-11-14T03:08:42.871Z,0
2018-11-14T03:09:23.428Z,0
2018-11-14T03:10:03.977Z,0
2018-11-14T03:10:44.543Z,0
2018-11-14T03:11:25.154Z,0
2018-11-14T03:12:05.755Z,0
2018-11-14T03:12:46.265Z,0
2018-11-14T03:13:26.854Z,0
2018-11-14T03:14:07.433Z,0
2018-11-14T03:14:47.995Z,0
2018-11-14T03:15:28.552Z,0
2018-11-14T03:16:09.115Z,0
2018-11-14T03:16:49.689Z,0
2018-11-14T03:17:30.256Z,0
2018-11-14T03:18:10.847Z,0
2018-11-14T03:18:51.407Z,0
2018-11-14T03:19:31.969Z,0
2018-11-14T03:20:12.545Z,0
2018-11-14T03:20:53.104Z,0
2018-11-14T03:21:33.671Z,0
2018-11-14T03:22:14.219Z,0
2018-11-14T03:22:54.800Z,0
2018-11-14T03:23:35.348Z,0
2018-11-14T03:24:15.911Z,0
2018-11-14T03:24:56.457Z,0
2018-11-14T03:25:37.003Z,0
2018-11-14T03:26:17.580Z,0
2018-11-14T03:26:58.137Z,0
2018-11-14T03:27:38.708Z,0
2018-11-14T03:28:19.266Z,0
2018-11-14T03:28:59.802Z,0
2018-11-14T03:29:40.363Z,0
2018-11-14T03:30:20.916Z,0
2018-11-14T03:31:01.473Z,0
2018-11-14T03:31:42.088Z,0
2018-11-14T03:32:22.682Z,0
2018-11-14T03:33:03.281Z,0
2018-11-14T03:33:43.828Z,0
2018-11-14T03:34:24.440Z,0
2018-11-14T03:35:05.007Z,0
2018-11-14T03:35:45.560Z,0
2018-11-14T03:36:26.116Z,0
2018-11-14T03:37:06.679Z,0
2018-11-14T03:37:47.229Z,0
2018-11-14T03:38:27.802Z,0
2018-11-14T03:39:08.341Z,0
2018-11-14T03:39:48.925Z,0
2018-11-14T03:40:29.469Z,0
2018-11-14T03:41:10.048Z,0
2018-11-14T03:41:50.619Z,0
2018-11-14T03:42:31.173Z,0
2018-11-14T03:43:11.735Z,0
2018-11-14T03:43:52.300Z,0
2018-11-14T03:44:32.858Z,0
2018-11-14T03:45:13.413Z,0
2018-11-14T03:45:53.971Z,0
2018-11-14T03:46:34.517Z,0
2018-11-14T03:47:15.061Z,0
2018-11-14T03:47:55.671Z,0
2018-11-14T03:48:36.209Z,0
2018-11-14T03:49:16.759Z,0
2018-11-14T03:49:57.331Z,0
2018-11-14T03:50:37.897Z,0
2018-11-14T03:51:18.472Z,0
2018-11-14T03:51:59.018Z,0
2018-11-14T03:52:39.567Z,0
2018-11-14T03:53:20.124Z,0
2018-11-14T03:54:00.652Z,0
2018-11-14T03:54:41.208Z,0
2018-11-14T03:55:21.759Z,0
2018-11-14T03:56:02.319Z,0
2018-11-14T03:56:42.873Z,0
2018-11-14T03:57:23.426Z,0
2018-11-14T03:58:04.029Z,0
2018-11-14T03:58:44.568Z,0
2018-11-14T03:59:25.123Z,0
2018-11-14T04:00:05.679Z,0
2018-11-14T04:00:46.234Z,0
2018-11-14T04:01:26.789Z,0
2018-11-14T04:02:07.345Z,0
2018-11-14T04:02:47.926Z,0
2018-11-14T04:03:28.480Z,0
2018-11-14T04:04:09.040Z,0
2018-11-14T04:04:49.598Z,0
2018-11-14T04:05:30.195Z,0
2018-11-14T04:06:10.741Z,0
2018-11-14T04:06:51.311Z,0
2018-11-14T04:07:31.894Z,0
2018-11-14T04:08:12.448Z,0
2018-11-14T04:08:53.001Z,0
2018-11-14T04:09:33.782Z,0
2018-11-14T04:10:14.156Z,0
2018-11-14T04:10:54.719Z,0
2018-11-14T04:11:35.314Z,0
2018-11-14T04:12:15.860Z,0
2018-11-14T04:12:56.434Z,0
2018-11-14T04:13:36.981Z,0
2018-11-14T04:14:17.553Z,0
2018-11-14T04:14:58.128Z,0
2018-11-14T04:15:38.688Z,0
2018-11-14T04:16:19.265Z,0
2018-11-14T04:16:59.817Z,0
2018-11-14T04:17:40.376Z,0
2018-11-14T04:18:20.926Z,0
2018-11-14T04:19:01.513Z,0
2018-11-14T04:19:42.074Z,0
2018-11-14T04:20:22.636Z,0
2018-11-14T04:21:03.217Z,0
2018-11-14T04:21:43.803Z,0
2018-11-14T04:22:24.389Z,0
2018-11-14T04:23:04.934Z,0
2018-11-14T04:23:45.478Z,0
2018-11-14T04:24:26.097Z,0
2018-11-14T04:25:06.720Z,0
2018-11-14T04:25:47.258Z,0
2018-11-14T04:26:27.832Z,0
2018-11-14T04:27:08.403Z,0
2018-11-14T04:27:48.966Z,0
2018-11-14T04:28:29.520Z,0
2018-11-14T04:29:10.076Z,0
2018-11-14T04:29:50.641Z,0
2018-11-14T04:30:31.190Z,0
2018-11-14T04:31:11.749Z,0
2018-11-14T04:31:52.309Z,0
2018-11-14T04:32:32.862Z,0
2018-11-14T04:33:13.429Z,0
2018-11-14T04:33:53.987Z,0
2018-11-14T04:34:34.554Z,0
2018-11-14T04:35:15.109Z,0
2018-11-14T04:35:55.700Z,0
2018-11-14T04:36:36.313Z,0
2018-11-14T04:37:16.878Z,0
2018-11-14T04:37:57.440Z,0
2018-11-14T04:38:38.001Z,0
2018-11-14T04:39:18.559Z,0
2018-11-14T04:39:59.121Z,0
2018-11-14T04:40:39.681Z,0
2018-11-14T04:41:20.252Z,0
2018-11-14T04:42:00.823Z,0
2018-11-14T04:42:41.395Z,0
2018-11-14T04:43:21.988Z,0
2018-11-14T04:44:02.541Z,0
2018-11-14T04:44:43.105Z,0
2018-11-14T04:45:23.654Z,0
2018-11-14T04:46:04.206Z,0
2018-11-14T04:46:44.754Z,0
2018-11-14T04:47:25.334Z,0
2018-11-14T04:48:05.982Z,0
2018-11-14T04:48:46.458Z,0
2018-11-14T04:49:26.999Z,0
2018-11-14T04:50:07.553Z,0
2018-11-14T04:50:48.108Z,0
2018-11-14T04:51:28.725Z,0
2018-11-14T04:52:09.231Z,0
2018-11-14T04:52:49.794Z,0
2018-11-14T04:53:30.351Z,0
2018-11-14T04:54:10.937Z,0
2018-11-14T04:54:51.504Z,0
2018-11-14T04:55:32.083Z,0
2018-11-14T04:56:12.645Z,0
2018-11-14T04:56:53.202Z,0
2018-11-14T04:57:33.775Z,0
2018-11-14T04:58:14.342Z,0
2018-11-14T04:58:54.880Z,0
2018-11-14T04:59:35.471Z,0
2018-11-14T05:00:16.071Z,0
2018-11-14T05:00:56.632Z,0
2018-11-14T05:01:37.200Z,0
2018-11-14T05:02:17.819Z,0
2018-11-14T05:02:58.343Z,0
2018-11-14T05:03:38.896Z,0
2018-11-14T05:04:19.450Z,0
2018-11-14T05:05:00.005Z,0
2018-11-14T05:05:40.553Z,0
2018-11-14T05:06:21.105Z,0
2018-11-14T05:07:01.650Z,0
2018-11-14T05:07:42.202Z,0
2018-11-14T05:08:22.779Z,0
2018-11-14T05:09:03.347Z,0
2018-11-14T05:09:43.929Z,0
2018-11-14T05:10:24.521Z,0
2018-11-14T05:11:05.079Z,0
2018-11-14T05:11:45.666Z,0
2018-11-14T05:12:26.253Z,0
2018-11-14T05:13:06.893Z,0
2018-11-14T05:13:47.390Z,0
2018-11-14T05:14:27.940Z,0
2018-11-14T05:15:08.526Z,0
2018-11-14T05:15:49.097Z,0
2018-11-14T05:16:29.676Z,0
2018-11-14T05:17:10.224Z,0
2018-11-14T05:17:50.787Z,0
2018-11-14T05:18:31.340Z,0
2018-11-14T05:19:11.903Z,0
2018-11-14T05:19:52.449Z,0
2018-11-14T05:20:33.014Z,0
2018-11-14T05:21:13.564Z,0
2018-11-14T05:21:54.155Z,0
2018-11-14T05:22:34.721Z,0
2018-11-14T05:23:15.275Z,0
2018-11-14T05:23:55.827Z,0
2018-11-14T05:24:36.533Z,0
2018-11-14T05:25:16.962Z,0
2018-11-14T05:25:57.516Z,0
2018-11-14T05:26:38.105Z,0
2018-11-14T05:27:18.680Z,0
2018-11-14T05:27:59.245Z,0
2018-11-14T05:28:39.849Z,0
2018-11-14T05:29:20.402Z,0
2018-11-14T05:30:00.968Z,0
2018-11-14T05:30:41.525Z,0
2018-11-14T05:31:22.115Z,0
2018-11-14T05:32:02.776Z,0
2018-11-14T05:32:43.251Z,0
2018-11-14T05:33:23.805Z,0
2018-11-14T05:34:04.375Z,0
2018-11-14T05:34:44.937Z,0
2018-11-14T05:35:25.491Z,0
2018-11-14T05:36:06.064Z,0
2018-11-14T05:36:46.628Z,0
2018-11-14T05:37:27.183Z,0
2018-11-14T05:38:07.751Z,0
2018-11-14T05:38:48.309Z,0
2018-11-14T05:39:28.925Z,0
2018-11-14T05:40:09.450Z,0
2018-11-14T05:40:50.019Z,0
2018-11-14T05:41:30.574Z,0
2018-11-14T05:42:11.132Z,0
2018-11-14T05:42:51.696Z,0
2018-11-14T05:43:32.291Z,0
2018-11-14T05:44:12.884Z,0
2018-11-14T05:44:53.465Z,0
2018-11-14T05:45:34.170Z,0
2018-11-14T05:46:14.635Z,0
2018-11-14T05:46:55.199Z,0
2018-11-14T05:47:35.806Z,0
2018-11-14T05:48:16.363Z,4
2018-11-14T05:48:56.940Z,4
2018-11-14T05:49:37.541Z,4
2018-11-14T05:50:18.107Z,0
2018-11-14T05:50:58.670Z,0
2018-11-14T05:51:39.219Z,0
2018-11-14T05:52:19.765Z,4
2018-11-14T05:53:00.328Z,4
2018-11-14T05:53:40.882Z,0
2018-11-14T05:54:21.480Z,4
2018-11-14T05:55:02.135Z,4
2018-11-14T05:55:42.607Z,4
2018-11-14T05:56:23.200Z,4
2018-11-14T05:57:03.782Z,4
2018-11-14T05:57:44.341Z,4
2018-11-14T05:58:24.905Z,4
2018-11-14T05:59:05.457Z,8
2018-11-14T05:59:46.045Z,8
2018-11-14T06:00:26.626Z,8
2018-11-14T06:01:07.182Z,8
2018-11-14T06:01:47.779Z,12
2018-11-14T06:02:28.365Z,12
2018-11-14T06:03:08.911Z,16
2018-11-14T06:03:49.474Z,12
2018-11-14T06:04:30.076Z,16
2018-11-14T06:05:10.630Z,20
2018-11-14T06:05:51.250Z,20
2018-11-14T06:06:31.857Z,24
2018-11-14T06:07:12.529Z,24
2018-11-14T06:07:53.019Z,28
2018-11-14T06:08:33.589Z,28
2018-11-14T06:09:14.157Z,32
2018-11-14T06:09:54.715Z,36
2018-11-14T06:10:35.273Z,40
2018-11-14T06:11:15.841Z,44
2018-11-14T06:11:56.396Z,44
2018-11-14T06:12:36.959Z,48
2018-11-14T06:13:17.563Z,56
2018-11-14T06:13:58.141Z,60
2018-11-14T06:14:38.670Z,64
2018-11-14T06:15:19.372Z,68
2018-11-14T06:15:59.823Z,72
2018-11-14T06:16:40.379Z,80
2018-11-14T06:17:20.978Z,84
2018-11-14T06:18:01.562Z,92
2018-11-14T06:18:42.144Z,104
2018-11-14T06:19:22.690Z,112
2018-11-14T06:20:03.260Z,120
2018-11-14T06:20:43.813Z,132
2018-11-14T06:21:24.369Z,140
2018-11-14T06:22:05.064Z,152
2018-11-14T06:22:45.488Z,168
2018-11-14T06:23:26.097Z,176
2018-11-14T06:24:06.628Z,192
2018-11-14T06:24:47.187Z,204
2018-11-14T06:25:27.771Z,220
2018-11-14T06:26:08.321Z,232
2018-11-14T06:26:48.874Z,244
2018-11-14T06:27:29.770Z,260
2018-11-14T06:28:10.335Z,272
2018-11-14T06:28:50.895Z,288
2018-11-14T06:29:31.456Z,300
2018-11-14T06:30:12.439Z,308
2018-11-14T06:30:53.001Z,320
2018-11-14T06:31:33.547Z,332
2018-11-14T06:32:14.257Z,340
2018-11-14T06:32:55.140Z,348
2018-11-14T06:33:37.326Z,360
2018-11-14T06:34:17.874Z,376
2018-11-14T06:34:58.439Z,384
2018-11-14T06:35:39.008Z,400
2018-11-14T06:36:19.555Z,408
2018-11-14T06:37:00.176Z,420
2018-11-14T06:37:43.244Z,432
2018-11-14T06:38:23.800Z,448
2018-11-14T06:39:04.356Z,468
2018-11-14T06:39:44.938Z,488
2018-11-14T06:40:25.539Z,504
2018-11-14T06:41:06.097Z,524
2018-11-14T06:41:46.722Z,544
2018-11-14T06:42:27.531Z,564
2018-11-14T06:43:07.969Z,588
2018-11-14T06:43:48.524Z,608
2018-11-14T06:44:29.080Z,636
2018-11-14T06:45:09.638Z,656
2018-11-14T06:45:50.206Z,684
2018-11-14T06:46:30.799Z,704
2018-11-14T06:47:11.591Z,732
2018-11-14T06:47:52.164Z,760
2018-11-14T06:48:32.753Z,792
2018-11-14T06:49:13.385Z,824
2018-11-14T06:49:54.004Z,864
2018-11-14T06:50:34.553Z,904
2018-11-14T06:51:15.122Z,948
2018-11-14T06:51:56.088Z,984
2018-11-14T06:52:37.141Z,1032
2018-11-14T06:53:18.164Z,1088
2018-11-14T06:53:59.187Z,1140
2018-11-14T06:54:40.096Z,1184
2018-11-14T06:55:21.155Z,1224
2018-11-14T06:56:02.172Z,1256
2018-11-14T06:56:42.809Z,1276
2018-11-14T06:57:23.683Z,1300
2018-11-14T06:58:04.379Z,1316
2018-11-14T06:58:45.318Z,1352
2018-11-14T06:59:26.164Z,1380
2018-11-14T07:00:06.893Z,1412
2018-11-14T07:00:47.668Z,1444
2018-11-14T07:01:28.351Z,1468
2018-11-14T07:02:09.107Z,1476
2018-11-14T07:02:49.872Z,1492
2018-11-14T07:03:30.669Z,1496
2018-11-14T07:04:11.358Z,1484
2018-11-14T07:04:52.148Z,1468
2018-11-14T07:05:32.877Z,1440
2018-11-14T07:06:13.510Z,1424
2018-11-14T07:06:54.275Z,1416
2018-11-14T07:07:35.092Z,1476
2018-11-14T07:08:15.746Z,1580
2018-11-14T07:08:56.421Z,1672
2018-11-14T07:09:37.008Z,1732
2018-11-14T07:10:17.577Z,1768
2018-11-14T07:10:58.187Z,1800
2018-11-14T07:11:38.712Z,1840
2018-11-14T07:12:19.257Z,1868
2018-11-14T07:12:59.819Z,1944
2018-11-14T07:13:40.365Z,2012
2018-11-14T07:14:21.299Z,2040
2018-11-14T07:15:01.873Z,2096
2018-11-14T07:15:42.451Z,2104
2018-11-14T07:16:22.996Z,2128
2018-11-14T07:17:03.584Z,2184
2018-11-14T07:17:44.492Z,2248
2018-11-14T07:18:25.482Z,2292
2018-11-14T07:19:06.271Z,2376
2018-11-14T07:19:46.827Z,2468
2018-11-14T07:20:27.383Z,2544
2018-11-14T07:21:07.937Z,2616
2018-11-14T07:21:48.568Z,2688
2018-11-14T07:22:29.173Z,2756
2018-11-14T07:23:09.774Z,2792
2018-11-14T07:23:50.414Z,2816
2018-11-14T07:24:30.871Z,2856
2018-11-14T07:25:11.414Z,2880
2018-11-14T07:25:51.975Z,2896
2018-11-14T07:26:32.544Z,2884
2018-11-14T07:27:13.150Z,2876
2018-11-14T07:27:53.708Z,2816
2018-11-14T07:28:34.278Z,2848
2018-11-14T07:29:14.836Z,2936
2018-11-14T07:29:55.527Z,2948
2018-11-14T07:30:36.330Z,2976
2018-11-14T07:31:16.887Z,3008
2018-11-14T07:31:57.544Z,3044
2018-11-14T07:32:38.059Z,3088
2018-11-14T07:33:18.647Z,3060
2018-11-14T07:33:59.221Z,3008
2018-11-14T07:34:39.938Z,3004
2018-11-14T07:35:20.497Z,2976
2018-11-14T07:36:01.064Z,2964
2018-11-14T07:36:46.918Z,2968
2018-11-14T07:38:39.470Z,3004
2018-11-14T07:39:20.027Z,3032
2018-11-14T07:40:00.613Z,3116
2018-11-14T07:40:41.178Z,3160
2018-11-14T07:41:21.737Z,3224
2018-11-14T07:42:02.305Z,3304
2018-11-14T07:42:42.847Z,3376
2018-11-14T07:43:23.437Z,3412
2018-11-14T07:44:03.966Z,3464
2018-11-14T07:44:44.536Z,3532
2018-11-14T07:45:25.262Z,3556
2018-11-14T07:46:05.846Z,3536
2018-11-14T07:46:46.572Z,3512
2018-11-14T07:47:27.550Z,3532
2018-11-14T07:48:08.156Z,3648
2018-11-14T07:48:48.764Z,3692
2018-11-14T07:49:29.351Z,3744
2018-11-14T07:50:09.902Z,3828
2018-11-14T07:50:50.438Z,3896
2018-11-14T07:51:30.998Z,3900
2018-11-14T07:52:11.579Z,3924
2018-11-14T07:52:52.112Z,3928
2018-11-14T07:53:32.696Z,3888
2018-11-14T07:54:13.260Z,3872
2018-11-14T07:54:53.833Z,3792
2018-11-14T07:55:34.543Z,3716
2018-11-14T07:56:15.102Z,3584
2018-11-14T07:56:55.654Z,3556
2018-11-14T07:57:36.245Z,3620
2018-11-14T07:58:17.100Z,3632
2018-11-14T07:58:57.541Z,3668
2018-11-14T07:59:38.098Z,3712
2018-11-14T08:00:18.861Z,3800
2018-11-14T08:00:59.383Z,3812
2018-11-14T08:01:39.971Z,3792
2018-11-14T08:02:20.650Z,3760
2018-11-14T08:03:01.114Z,3852
2018-11-14T08:03:41.656Z,3780
2018-11-14T08:04:22.216Z,3868
2018-11-14T08:05:02.801Z,3820
2018-11-14T08:05:43.345Z,3640
2018-11-14T08:06:23.947Z,3200
2018-11-14T08:07:04.514Z,3112
2018-11-14T08:07:45.207Z,3396
2018-11-14T08:08:25.704Z,3920
2018-11-14T08:09:06.197Z,3668
2018-11-14T08:09:46.831Z,3756
2018-11-14T08:10:27.523Z,3956
2018-11-14T08:11:08.416Z,4464
2018-11-14T08:11:49.003Z,4436
2018-11-14T08:12:29.559Z,4472
2018-11-14T08:13:10.120Z,4744
2018-11-14T08:13:50.746Z,4900
2018-11-14T08:14:31.492Z,6176
2018-11-14T08:15:12.049Z,11856
2018-11-14T08:15:52.600Z,19136
2018-11-14T08:16:33.151Z,20128
2018-11-14T08:17:13.729Z,21216
2018-11-14T08:17:54.332Z,20768
2018-11-14T08:18:34.949Z,20320
2018-11-14T08:19:15.453Z,20992
2018-11-14T08:19:55.999Z,22080
2018-11-14T08:20:36.602Z,20832
2018-11-14T08:21:17.210Z,16992
2018-11-14T08:21:57.763Z,16736
2018-11-14T08:22:38.354Z,18848
2018-11-14T08:23:18.918Z,20800
2018-11-14T08:23:59.617Z,19360
2018-11-14T08:24:40.425Z,16896
2018-11-14T08:25:21.022Z,13952
2018-11-14T08:26:01.623Z,11672
2018-11-14T08:26:42.155Z,12048
2018-11-14T08:27:22.742Z,15264
2018-11-14T08:28:03.311Z,17280
2018-11-14T08:28:43.870Z,17856
2018-11-14T08:29:24.423Z,24256
2018-11-14T08:30:04.988Z,22560
2018-11-14T08:30:45.715Z,18208
2018-11-14T08:31:26.304Z,15104
2018-11-14T08:32:19.889Z,16896
2018-11-14T08:32:57.727Z,17728
2018-11-14T08:33:38.332Z,18080
2018-11-14T08:34:19.457Z,19744
2018-11-14T08:35:00.025Z,17024
2018-11-14T08:35:41.283Z,13296
2018-11-14T08:36:22.201Z,9300
2018-11-14T08:37:04.386Z,7168
2018-11-14T08:37:45.635Z,6464
2018-11-14T08:38:26.194Z,6616
2018-11-14T08:39:07.492Z,7460
2018-11-14T08:39:48.266Z,6940
2018-11-14T08:40:28.867Z,11624
2018-11-14T08:41:09.636Z,19072
2018-11-14T08:41:50.665Z,20768
2018-11-14T08:42:31.232Z,24096
2018-11-14T08:43:12.483Z,26944
2018-11-14T08:43:53.723Z,27776
2018-11-14T08:44:34.490Z,27712
2018-11-14T08:45:15.291Z,28256
2018-11-14T08:45:56.529Z,24288
2018-11-14T08:46:37.656Z,21184
2018-11-14T08:47:18.203Z,20224
2018-11-14T08:47:59.159Z,21664
2018-11-14T08:48:40.355Z,22688
2018-11-14T08:49:20.949Z,25440
2018-11-14T08:50:01.517Z,25088
2018-11-14T08:50:42.105Z,24576
2018-11-14T08:51:22.671Z,11752
2018-11-14T08:52:03.269Z,5060
2018-11-14T08:52:43.902Z,4308
2018-11-14T08:53:24.489Z,11004
2018-11-14T08:54:05.330Z,21216
2018-11-14T08:54:46.702Z,24096
2018-11-14T08:55:27.290Z,23904
2018-11-14T08:56:07.845Z,20064
2018-11-14T08:56:48.421Z,15200
2018-11-14T08:57:29.012Z,14272
2018-11-14T08:58:09.989Z,13192
2018-11-14T08:58:51.311Z,20640
2018-11-14T08:59:31.870Z,24864
2018-11-14T09:00:13.105Z,24480
2018-11-14T09:00:53.890Z,23616
2018-11-14T09:01:34.465Z,21088
2018-11-14T09:02:15.025Z,20256
2018-11-14T09:02:55.614Z,19040
2018-11-14T09:03:36.192Z,13420
2018-11-14T09:04:16.762Z,12384
2018-11-14T09:04:57.319Z,4948
2018-11-14T09:05:37.884Z,9528
2018-11-14T09:06:18.563Z,20320
2018-11-14T09:06:59.033Z,18656
2018-11-14T09:07:39.680Z,18208
2018-11-14T09:08:20.200Z,21344
2018-11-14T09:09:00.830Z,22912
2018-11-14T09:09:41.343Z,21440
2018-11-14T09:10:21.927Z,20736
2018-11-14T09:11:02.642Z,19360
2018-11-14T09:11:43.097Z,20672
2018-11-14T09:12:23.789Z,19072
2018-11-14T09:13:04.319Z,17664
2018-11-14T09:13:44.843Z,17568
2018-11-14T09:14:25.494Z,7324
2018-11-14T09:15:06.010Z,15104
2018-11-14T09:15:46.529Z,15168
2018-11-14T09:16:27.145Z,13660
2018-11-14T09:17:07.774Z,11388
2018-11-14T09:17:48.342Z,8060
2018-11-14T09:18:28.906Z,7508
2018-11-14T09:19:09.465Z,8988
2018-11-14T09:19:50.042Z,9392
2018-11-14T09:20:30.640Z,7224
2018-11-14T09:21:11.205Z,6532
2018-11-14T09:21:51.803Z,6228
2018-11-14T09:22:32.379Z,4868
2018-11-14T09:23:13.914Z,4132
2018-11-14T09:23:54.576Z,6584
2018-11-14T09:24:35.144Z,6840
2018-11-14T09:25:16.011Z,7396
2018-11-14T09:25:56.746Z,6672
2018-11-14T09:26:37.296Z,6016
2018-11-14T09:27:17.986Z,7176
2018-11-14T09:27:58.527Z,5860
2018-11-14T09:28:39.439Z,7540
2018-11-14T09:29:19.998Z,6196
2018-11-14T09:30:00.580Z,5312
2018-11-14T09:30:41.139Z,5404
2018-11-14T09:31:21.704Z,6596
2018-11-14T09:32:02.970Z,5580
2018-11-14T09:32:44.016Z,6140
2018-11-14T09:33:24.629Z,4928
2018-11-14T09:34:05.186Z,5604
2018-11-14T09:34:45.825Z,5656
2018-11-14T09:35:26.312Z,5844
2018-11-14T09:36:06.859Z,5596
2018-11-14T09:36:47.430Z,5472
2018-11-14T09:37:27.979Z,4732
2018-11-14T09:38:09.065Z,4228